sensor_id;sensor_type;location;lat;lon;timestamp;noise_LAeq;noise_LA_min;noise_LA_max;noise_LA01;noise_LA95
72805;Laerm;60920;48.748;19.142;2023-07-20T00:00:22;30.09;28.70;33.68;;
72805;Laerm;60920;48.748;19.142;2023-07-20T00:02:50;29.92;28.50;31.30;;
72805;Laerm;60920;48.748;19.142;2023-07-20T00:05:15;30.17;28.35;34.02;;
72805;Laerm;60920;48.748;19.142;2023-07-20T00:07:43;30.09;28.42;32.08;;
72805;Laerm;60920;48.748;19.142;2023-07-20T00:10:09;29.95;28.38;31.33;;
72805;Laerm;60920;48.748;19.142;2023-07-20T00:12:34;30.36;28.45;34.02;;
72805;Laerm;60920;48.748;19.142;2023-07-20T00:14:59;30.10;28.43;33.34;;
72805;Laerm;60920;48.748;19.142;2023-07-20T00:17:25;30.08;28.62;31.37;;
72805;Laerm;60920;48.748;19.142;2023-07-20T00:19:50;30.33;28.76;33.49;;
72805;Laerm;60920;48.748;19.142;2023-07-20T00:22:15;30.11;28.62;32.44;;
72805;Laerm;60920;48.748;19.142;2023-07-20T00:24:40;30.05;28.19;31.90;;
72805;Laerm;60920;48.748;19.142;2023-07-20T00:27:06;30.15;28.64;32.61;;
72805;Laerm;60920;48.748;19.142;2023-07-20T00:29:31;30.03;28.34;34.39;;
72805;Laerm;60920;48.748;19.142;2023-07-20T00:31:56;29.91;28.56;32.03;;
72805;Laerm;60920;48.748;19.142;2023-07-20T00:34:21;29.90;28.33;32.04;;
72805;Laerm;60920;48.748;19.142;2023-07-20T00:36:47;30.03;28.08;33.23;;
72805;Laerm;60920;48.748;19.142;2023-07-20T00:39:14;29.93;28.41;33.65;;
72805;Laerm;60920;48.748;19.142;2023-07-20T00:41:39;29.86;28.53;32.46;;
72805;Laerm;60920;48.748;19.142;2023-07-20T00:44:04;29.83;28.23;31.40;;
72805;Laerm;60920;48.748;19.142;2023-07-20T00:46:29;30.05;28.22;34.06;;
72805;Laerm;60920;48.748;19.142;2023-07-20T00:48:57;29.81;28.23;32.61;;
72805;Laerm;60920;48.748;19.142;2023-07-20T00:51:22;30.46;28.27;36.96;;
72805;Laerm;60920;48.748;19.142;2023-07-20T00:53:48;30.16;28.38;35.34;;
72805;Laerm;60920;48.748;19.142;2023-07-20T00:56:13;30.87;28.63;35.73;;
72805;Laerm;60920;48.748;19.142;2023-07-20T00:58:39;30.15;28.71;33.01;;
72805;Laerm;60920;48.748;19.142;2023-07-20T01:01:05;30.49;28.85;34.93;;
72805;Laerm;60920;48.748;19.142;2023-07-20T01:03:30;30.28;28.67;33.49;;
72805;Laerm;60920;48.748;19.142;2023-07-20T01:08:45;30.18;28.81;32.66;;
72805;Laerm;60920;48.748;19.142;2023-07-20T01:11:21;30.18;28.73;31.76;;
72805;Laerm;60920;48.748;19.142;2023-07-20T01:13:48;30.09;28.70;31.90;;
72805;Laerm;60920;48.748;19.142;2023-07-20T01:16:13;29.97;28.62;31.61;;
72805;Laerm;60920;48.748;19.142;2023-07-20T01:18:38;30.28;28.69;34.58;;
72805;Laerm;60920;48.748;19.142;2023-07-20T01:21:09;30.18;28.66;32.50;;
72805;Laerm;60920;48.748;19.142;2023-07-20T01:23:51;30.27;28.73;35.38;;
72805;Laerm;60920;48.748;19.142;2023-07-20T01:26:26;30.16;28.63;31.55;;
72805;Laerm;60920;48.748;19.142;2023-07-20T01:29:08;29.98;28.63;31.54;;
72805;Laerm;60920;48.748;19.142;2023-07-20T01:31:36;30.16;28.55;33.03;;
72805;Laerm;60920;48.748;19.142;2023-07-20T01:34:03;30.15;28.38;33.17;;
72805;Laerm;60920;48.748;19.142;2023-07-20T01:36:30;30.14;28.64;33.27;;
72805;Laerm;60920;48.748;19.142;2023-07-20T01:38:56;30.43;28.39;33.72;;
72805;Laerm;60920;48.748;19.142;2023-07-20T01:41:21;30.06;28.62;31.73;;
72805;Laerm;60920;48.748;19.142;2023-07-20T01:43:47;30.04;28.62;31.55;;
72805;Laerm;60920;48.748;19.142;2023-07-20T01:46:12;30.17;28.45;32.71;;
72805;Laerm;60920;48.748;19.142;2023-07-20T01:48:37;30.16;28.56;31.87;;
72805;Laerm;60920;48.748;19.142;2023-07-20T01:51:02;30.26;28.83;32.22;;
72805;Laerm;60920;48.748;19.142;2023-07-20T01:53:28;30.08;28.45;31.70;;
72805;Laerm;60920;48.748;19.142;2023-07-20T01:55:53;30.35;28.57;37.36;;
72805;Laerm;60920;48.748;19.142;2023-07-20T01:58:19;30.19;28.61;31.89;;
72805;Laerm;60920;48.748;19.142;2023-07-20T02:00:44;30.48;28.80;35.76;;
72805;Laerm;60920;48.748;19.142;2023-07-20T02:03:10;30.31;28.78;33.07;;
72805;Laerm;60920;48.748;19.142;2023-07-20T02:05:37;30.38;28.77;34.02;;
72805;Laerm;60920;48.748;19.142;2023-07-20T02:08:02;30.24;28.92;32.34;;
72805;Laerm;60920;48.748;19.142;2023-07-20T02:10:27;30.52;28.80;35.77;;
72805;Laerm;60920;48.748;19.142;2023-07-20T02:12:53;30.42;28.91;33.49;;
72805;Laerm;60920;48.748;19.142;2023-07-20T02:15:18;30.50;28.98;33.99;;
72805;Laerm;60920;48.748;19.142;2023-07-20T02:17:44;30.40;28.70;32.28;;
72805;Laerm;60920;48.748;19.142;2023-07-20T02:20:10;30.61;28.86;34.26;;
72805;Laerm;60920;48.748;19.142;2023-07-20T02:22:36;30.37;28.85;32.35;;
72805;Laerm;60920;48.748;19.142;2023-07-20T02:25:01;30.41;28.80;33.45;;
72805;Laerm;60920;48.748;19.142;2023-07-20T02:27:26;30.58;28.99;34.05;;
72805;Laerm;60920;48.748;19.142;2023-07-20T02:29:52;30.38;28.86;32.42;;
72805;Laerm;60920;48.748;19.142;2023-07-20T02:32:17;30.89;28.74;34.65;;
72805;Laerm;60920;48.748;19.142;2023-07-20T02:34:42;30.63;29.17;33.19;;
72805;Laerm;60920;48.748;19.142;2023-07-20T02:37:07;30.69;28.95;34.44;;
72805;Laerm;60920;48.748;19.142;2023-07-20T02:39:33;30.67;28.81;33.30;;
72805;Laerm;60920;48.748;19.142;2023-07-20T02:41:58;30.73;28.98;33.63;;
72805;Laerm;60920;48.748;19.142;2023-07-20T02:44:23;30.93;29.40;38.69;;
72805;Laerm;60920;48.748;19.142;2023-07-20T02:46:49;30.80;29.14;34.33;;
72805;Laerm;60920;48.748;19.142;2023-07-20T02:49:17;30.75;28.95;33.71;;
72805;Laerm;60920;48.748;19.142;2023-07-20T02:51:42;31.32;29.12;35.70;;
72805;Laerm;60920;48.748;19.142;2023-07-20T02:54:07;31.27;29.24;40.26;;
72805;Laerm;60920;48.748;19.142;2023-07-20T02:56:33;31.20;29.17;44.46;;
72805;Laerm;60920;48.748;19.142;2023-07-20T02:58:58;30.88;28.65;35.56;;
72805;Laerm;60920;48.748;19.142;2023-07-20T03:01:24;31.14;29.11;43.52;;
72805;Laerm;60920;48.748;19.142;2023-07-20T03:03:49;30.83;29.08;37.89;;
72805;Laerm;60920;48.748;19.142;2023-07-20T03:06:15;30.95;29.19;35.53;;
72805;Laerm;60920;48.748;19.142;2023-07-20T03:08:41;31.08;29.38;35.23;;
72805;Laerm;60920;48.748;19.142;2023-07-20T03:11:06;31.33;29.40;38.37;;
72805;Laerm;60920;48.748;19.142;2023-07-20T03:13:32;31.22;29.36;34.27;;
72805;Laerm;60920;48.748;19.142;2023-07-20T03:15:57;30.95;29.27;33.88;;
72805;Laerm;60920;48.748;19.142;2023-07-20T03:18:22;31.10;29.31;33.58;;
72805;Laerm;60920;48.748;19.142;2023-07-20T03:20:48;31.56;29.40;39.34;;
72805;Laerm;60920;48.748;19.142;2023-07-20T03:23:13;31.93;29.40;43.31;;
72805;Laerm;60920;48.748;19.142;2023-07-20T03:25:40;31.03;29.22;35.37;;
72805;Laerm;60920;48.748;19.142;2023-07-20T03:28:05;31.48;29.23;42.80;;
72805;Laerm;60920;48.748;19.142;2023-07-20T03:30:31;31.67;29.31;37.34;;
72805;Laerm;60920;48.748;19.142;2023-07-20T03:32:56;31.33;29.19;36.84;;
72805;Laerm;60920;48.748;19.142;2023-07-20T03:35:21;31.04;29.32;33.36;;
72805;Laerm;60920;48.748;19.142;2023-07-20T03:37:47;31.49;29.19;42.28;;
72805;Laerm;60920;48.748;19.142;2023-07-20T03:40:12;31.26;29.04;35.18;;
72805;Laerm;60920;48.748;19.142;2023-07-20T03:42:37;31.62;29.45;39.71;;
72805;Laerm;60920;48.748;19.142;2023-07-20T03:45:04;32.70;29.34;44.20;;
72805;Laerm;60920;48.748;19.142;2023-07-20T03:47:29;31.32;29.21;43.56;;
72805;Laerm;60920;48.748;19.142;2023-07-20T03:49:54;31.76;29.37;39.90;;
72805;Laerm;60920;48.748;19.142;2023-07-20T03:52:20;31.11;29.13;33.77;;
72805;Laerm;60920;48.748;19.142;2023-07-20T03:54:45;31.73;29.31;43.60;;
72805;Laerm;60920;48.748;19.142;2023-07-20T03:57:10;31.52;29.58;39.46;;
72805;Laerm;60920;48.748;19.142;2023-07-20T03:59:37;31.82;29.44;40.75;;
72805;Laerm;60920;48.748;19.142;2023-07-20T04:02:02;31.71;29.61;35.94;;
72805;Laerm;60920;48.748;19.142;2023-07-20T04:04:27;31.86;29.07;39.22;;
72805;Laerm;60920;48.748;19.142;2023-07-20T04:06:53;31.23;29.46;39.01;;
72805;Laerm;60920;48.748;19.142;2023-07-20T04:09:18;31.63;29.28;37.15;;
72805;Laerm;60920;48.748;19.142;2023-07-20T04:11:43;31.12;29.14;35.46;;
72805;Laerm;60920;48.748;19.142;2023-07-20T04:14:08;31.68;29.30;37.11;;
72805;Laerm;60920;48.748;19.142;2023-07-20T04:16:34;31.66;29.42;34.10;;
72805;Laerm;60920;48.748;19.142;2023-07-20T04:18:59;31.05;29.04;33.35;;
72805;Laerm;60920;48.748;19.142;2023-07-20T04:21:26;31.60;29.21;39.28;;
72805;Laerm;60920;48.748;19.142;2023-07-20T04:23:51;31.07;29.12;35.16;;
72805;Laerm;60920;48.748;19.142;2023-07-20T04:26:17;31.50;28.87;38.30;;
72805;Laerm;60920;48.748;19.142;2023-07-20T04:28:42;31.51;29.03;34.49;;
72805;Laerm;60920;48.748;19.142;2023-07-20T04:31:11;31.69;29.00;37.13;;
72805;Laerm;60920;48.748;19.142;2023-07-20T04:33:37;31.71;29.32;38.01;;
72805;Laerm;60920;48.748;19.142;2023-07-20T04:36:02;31.66;29.43;39.09;;
72805;Laerm;60920;48.748;19.142;2023-07-20T04:38:28;31.47;29.29;34.66;;
72805;Laerm;60920;48.748;19.142;2023-07-20T04:40:53;31.35;28.97;36.53;;
72805;Laerm;60920;48.748;19.142;2023-07-20T04:43:18;32.01;29.36;38.22;;
72805;Laerm;60920;48.748;19.142;2023-07-20T04:45:44;31.92;29.28;39.56;;
72805;Laerm;60920;48.748;19.142;2023-07-20T04:48:10;31.83;29.47;36.38;;
72805;Laerm;60920;48.748;19.142;2023-07-20T04:50:40;35.55;30.06;42.88;;
72805;Laerm;60920;48.748;19.142;2023-07-20T04:53:05;41.81;34.30;48.91;;
72805;Laerm;60920;48.748;19.142;2023-07-20T04:55:31;40.52;35.46;56.18;;
72805;Laerm;60920;48.748;19.142;2023-07-20T04:57:58;35.13;31.42;44.22;;
72805;Laerm;60920;48.748;19.142;2023-07-20T05:00:24;43.06;34.58;48.77;;
72805;Laerm;60920;48.748;19.142;2023-07-20T05:02:50;40.54;34.25;47.55;;
72805;Laerm;60920;48.748;19.142;2023-07-20T05:05:15;40.03;32.95;45.84;;
72805;Laerm;60920;48.748;19.142;2023-07-20T05:07:40;42.47;33.79;47.31;;
72805;Laerm;60920;48.748;19.142;2023-07-20T05:10:06;38.97;32.28;47.36;;
72805;Laerm;60920;48.748;19.142;2023-07-20T05:12:32;38.25;32.19;52.65;;
72805;Laerm;60920;48.748;19.142;2023-07-20T05:14:57;38.05;32.43;45.12;;
72805;Laerm;60920;48.748;19.142;2023-07-20T05:17:22;37.63;32.16;44.06;;
72805;Laerm;60920;48.748;19.142;2023-07-20T05:19:48;37.44;32.67;44.63;;
72805;Laerm;60920;48.748;19.142;2023-07-20T05:22:13;38.69;33.11;43.97;;
72805;Laerm;60920;48.748;19.142;2023-07-20T05:24:39;38.75;33.04;43.37;;
72805;Laerm;60920;48.748;19.142;2023-07-20T05:27:05;38.78;33.21;44.29;;
72805;Laerm;60920;48.748;19.142;2023-07-20T05:29:30;37.63;32.60;43.49;;
72805;Laerm;60920;48.748;19.142;2023-07-20T05:31:55;39.78;31.88;51.44;;
72805;Laerm;60920;48.748;19.142;2023-07-20T05:34:21;37.93;32.39;44.69;;
72805;Laerm;60920;48.748;19.142;2023-07-20T05:36:46;36.50;31.88;41.28;;
72805;Laerm;60920;48.748;19.142;2023-07-20T05:39:11;36.54;31.54;46.20;;
72805;Laerm;60920;48.748;19.142;2023-07-20T05:41:36;36.11;31.71;41.09;;
72805;Laerm;60920;48.748;19.142;2023-07-20T05:44:02;36.89;32.33;42.49;;
72805;Laerm;60920;48.748;19.142;2023-07-20T05:46:27;36.66;31.24;44.66;;
72805;Laerm;60920;48.748;19.142;2023-07-20T05:48:52;35.09;30.28;39.92;;
72805;Laerm;60920;48.748;19.142;2023-07-20T05:51:18;34.37;29.88;39.95;;
72805;Laerm;60920;48.748;19.142;2023-07-20T05:53:43;34.67;30.66;44.13;;
72805;Laerm;60920;48.748;19.142;2023-07-20T05:56:08;37.16;32.47;44.01;;
72805;Laerm;60920;48.748;19.142;2023-07-20T05:58:35;40.47;35.04;47.61;;
72805;Laerm;60920;48.748;19.142;2023-07-20T06:01:00;40.83;33.37;45.87;;
72805;Laerm;60920;48.748;19.142;2023-07-20T06:03:27;36.19;29.09;45.52;;
72805;Laerm;60920;48.748;19.142;2023-07-20T06:05:57;32.22;29.09;43.41;;
72805;Laerm;60920;48.748;19.142;2023-07-20T06:08:23;31.97;29.15;46.93;;
72805;Laerm;60920;48.748;19.142;2023-07-20T06:10:49;31.32;28.54;45.42;;
72805;Laerm;60920;48.748;19.142;2023-07-20T06:13:15;32.30;29.01;46.70;;
72805;Laerm;60920;48.748;19.142;2023-07-20T06:15:41;32.09;28.46;43.70;;
72805;Laerm;60920;48.748;19.142;2023-07-20T06:18:07;31.67;28.86;41.20;;
72805;Laerm;60920;48.748;19.142;2023-07-20T06:20:32;32.24;28.57;47.88;;
72805;Laerm;60920;48.748;19.142;2023-07-20T06:22:58;32.60;29.02;52.23;;
72805;Laerm;60920;48.748;19.142;2023-07-20T06:25:24;31.25;28.71;36.61;;
72805;Laerm;60920;48.748;19.142;2023-07-20T06:27:49;37.96;29.60;47.07;;
72805;Laerm;60920;48.748;19.142;2023-07-20T06:30:18;40.11;35.68;47.10;;
72805;Laerm;60920;48.748;19.142;2023-07-20T06:32:44;40.26;33.79;45.81;;
72805;Laerm;60920;48.748;19.142;2023-07-20T06:35:09;39.98;33.63;44.87;;
72805;Laerm;60920;48.748;19.142;2023-07-20T06:37:35;39.97;33.69;45.31;;
72805;Laerm;60920;48.748;19.142;2023-07-20T06:40:01;40.05;33.88;47.68;;
72805;Laerm;60920;48.748;19.142;2023-07-20T06:42:26;38.06;32.74;42.24;;
72805;Laerm;60920;48.748;19.142;2023-07-20T06:44:52;37.14;32.47;40.45;;
72805;Laerm;60920;48.748;19.142;2023-07-20T06:47:17;37.04;29.69;43.24;;
72805;Laerm;60920;48.748;19.142;2023-07-20T06:49:42;31.75;28.10;39.40;;
72805;Laerm;60920;48.748;19.142;2023-07-20T06:52:07;36.88;29.39;45.67;;
72805;Laerm;60920;48.748;19.142;2023-07-20T06:54:33;37.10;32.56;42.38;;
72805;Laerm;60920;48.748;19.142;2023-07-20T06:56:58;34.78;29.28;42.03;;
72805;Laerm;60920;48.748;19.142;2023-07-20T06:59:24;38.33;29.69;44.29;;
72805;Laerm;60920;48.748;19.142;2023-07-20T07:01:50;37.17;29.16;43.95;;
72805;Laerm;60920;48.748;19.142;2023-07-20T07:04:15;38.51;33.15;44.20;;
72805;Laerm;60920;48.748;19.142;2023-07-20T07:06:40;38.21;33.00;43.19;;
72805;Laerm;60920;48.748;19.142;2023-07-20T07:09:06;36.20;31.93;47.81;;
72805;Laerm;60920;48.748;19.142;2023-07-20T07:11:33;36.61;31.51;44.40;;
72805;Laerm;60920;48.748;19.142;2023-07-20T07:13:58;36.25;31.73;42.93;;
72805;Laerm;60920;48.748;19.142;2023-07-20T07:16:24;34.02;29.47;41.12;;
72805;Laerm;60920;48.748;19.142;2023-07-20T07:18:50;36.50;30.74;44.06;;
72805;Laerm;60920;48.748;19.142;2023-07-20T07:21:15;35.85;30.61;47.56;;
72805;Laerm;60920;48.748;19.142;2023-07-20T07:23:40;32.81;29.64;37.00;;
72805;Laerm;60920;48.748;19.142;2023-07-20T07:26:06;37.28;29.46;46.23;;
72805;Laerm;60920;48.748;19.142;2023-07-20T07:28:31;36.71;30.57;43.14;;
72805;Laerm;60920;48.748;19.142;2023-07-20T07:30:59;36.66;29.77;55.49;;
72805;Laerm;60920;48.748;19.142;2023-07-20T07:33:25;41.30;36.92;46.41;;
72805;Laerm;60920;48.748;19.142;2023-07-20T07:35:51;43.77;38.26;49.64;;
72805;Laerm;60920;48.748;19.142;2023-07-20T07:38:19;43.71;38.04;49.72;;
72805;Laerm;60920;48.748;19.142;2023-07-20T07:40:45;44.14;35.58;50.45;;
72805;Laerm;60920;48.748;19.142;2023-07-20T07:43:10;43.41;35.69;49.34;;
72805;Laerm;60920;48.748;19.142;2023-07-20T07:45:37;47.24;40.92;54.61;;
72805;Laerm;60920;48.748;19.142;2023-07-20T07:48:03;47.56;41.12;56.79;;
72805;Laerm;60920;48.748;19.142;2023-07-20T07:50:29;49.75;43.53;59.34;;
72805;Laerm;60920;48.748;19.142;2023-07-20T07:52:54;51.39;42.80;62.87;;
72805;Laerm;60920;48.748;19.142;2023-07-20T07:55:19;50.35;40.51;59.93;;
72805;Laerm;60920;48.748;19.142;2023-07-20T07:57:45;44.10;29.17;51.35;;
72805;Laerm;60920;48.748;19.142;2023-07-20T08:00:12;37.97;28.76;49.59;;
72805;Laerm;60920;48.748;19.142;2023-07-20T08:02:40;33.04;29.56;41.20;;
72805;Laerm;60920;48.748;19.142;2023-07-20T08:05:06;32.73;28.46;45.88;;
72805;Laerm;60920;48.748;19.142;2023-07-20T08:07:32;32.35;28.40;40.41;;
72805;Laerm;60920;48.748;19.142;2023-07-20T08:09:57;35.49;28.82;45.40;;
72805;Laerm;60920;48.748;19.142;2023-07-20T08:12:22;31.68;29.08;41.60;;
72805;Laerm;60920;48.748;19.142;2023-07-20T08:14:48;33.17;29.14;43.31;;
72805;Laerm;60920;48.748;19.142;2023-07-20T08:17:13;32.67;29.35;41.86;;
72805;Laerm;60920;48.748;19.142;2023-07-20T08:19:39;31.92;28.77;39.83;;
72805;Laerm;60920;48.748;19.142;2023-07-20T08:22:06;31.95;28.74;37.94;;
72805;Laerm;60920;48.748;19.142;2023-07-20T08:24:32;33.07;28.88;41.97;;
72805;Laerm;60920;48.748;19.142;2023-07-20T08:26:57;33.35;28.80;48.51;;
72805;Laerm;60920;48.748;19.142;2023-07-20T08:29:23;32.49;29.07;43.27;;
72805;Laerm;60920;48.748;19.142;2023-07-20T08:31:49;32.17;28.87;45.05;;
72805;Laerm;60920;48.748;19.142;2023-07-20T08:34:14;32.79;28.56;44.57;;
72805;Laerm;60920;48.748;19.142;2023-07-20T08:36:39;32.53;29.03;39.09;;
72805;Laerm;60920;48.748;19.142;2023-07-20T08:39:05;32.05;28.54;37.45;;
72805;Laerm;60920;48.748;19.142;2023-07-20T08:41:30;32.18;29.10;38.69;;
72805;Laerm;60920;48.748;19.142;2023-07-20T08:43:56;32.45;28.29;40.67;;
72805;Laerm;60920;48.748;19.142;2023-07-20T08:46:22;33.68;29.73;44.51;;
72805;Laerm;60920;48.748;19.142;2023-07-20T08:48:48;32.54;29.26;44.58;;
72805;Laerm;60920;48.748;19.142;2023-07-20T08:51:14;31.91;28.32;39.86;;
72805;Laerm;60920;48.748;19.142;2023-07-20T08:53:40;32.70;28.64;40.01;;
72805;Laerm;60920;48.748;19.142;2023-07-20T08:56:06;31.34;27.84;38.89;;
72805;Laerm;60920;48.748;19.142;2023-07-20T08:58:31;32.03;28.93;40.28;;
72805;Laerm;60920;48.748;19.142;2023-07-20T09:00:59;32.03;28.85;39.64;;
72805;Laerm;60920;48.748;19.142;2023-07-20T09:03:25;32.46;27.84;44.07;;
72805;Laerm;60920;48.748;19.142;2023-07-20T09:05:51;31.37;27.48;40.25;;
72805;Laerm;60920;48.748;19.142;2023-07-20T09:08:17;44.68;29.08;56.93;;
72805;Laerm;60920;48.748;19.142;2023-07-20T09:10:42;46.62;35.95;60.00;;
72805;Laerm;60920;48.748;19.142;2023-07-20T09:13:08;46.15;36.71;56.56;;
72805;Laerm;60920;48.748;19.142;2023-07-20T09:15:33;45.29;36.38;54.45;;
72805;Laerm;60920;48.748;19.142;2023-07-20T09:18:00;42.27;34.59;52.55;;
72805;Laerm;60920;48.748;19.142;2023-07-20T09:20:26;44.00;35.45;53.87;;
72805;Laerm;60920;48.748;19.142;2023-07-20T09:22:51;38.65;33.39;50.06;;
72805;Laerm;60920;48.748;19.142;2023-07-20T09:25:18;37.12;32.07;45.54;;
72805;Laerm;60920;48.748;19.142;2023-07-20T09:27:47;38.13;31.98;46.07;;
72805;Laerm;60920;48.748;19.142;2023-07-20T09:30:13;39.88;32.44;51.65;;
72805;Laerm;60920;48.748;19.142;2023-07-20T09:32:40;40.19;33.16;48.07;;
72805;Laerm;60920;48.748;19.142;2023-07-20T09:35:07;39.56;34.04;45.60;;
72805;Laerm;60920;48.748;19.142;2023-07-20T09:37:37;38.68;32.26;46.47;;
72805;Laerm;60920;48.748;19.142;2023-07-20T09:40:02;39.94;32.62;49.33;;
72805;Laerm;60920;48.748;19.142;2023-07-20T09:42:28;40.03;31.10;46.90;;
72805;Laerm;60920;48.748;19.142;2023-07-20T09:44:53;39.72;31.08;46.81;;
72805;Laerm;60920;48.748;19.142;2023-07-20T09:47:22;40.63;31.16;53.99;;
72805;Laerm;60920;48.748;19.142;2023-07-20T09:49:47;35.76;29.44;41.37;;
72805;Laerm;60920;48.748;19.142;2023-07-20T09:52:13;35.50;28.61;48.25;;
72805;Laerm;60920;48.748;19.142;2023-07-20T09:54:39;32.56;29.43;38.03;;
72805;Laerm;60920;48.748;19.142;2023-07-20T09:57:08;34.40;29.71;42.73;;
72805;Laerm;60920;48.748;19.142;2023-07-20T09:59:37;32.00;29.20;37.57;;
72805;Laerm;60920;48.748;19.142;2023-07-20T10:02:04;35.14;29.13;46.50;;
72805;Laerm;60920;48.748;19.142;2023-07-20T10:04:33;32.49;29.08;38.48;;
72805;Laerm;60920;48.748;19.142;2023-07-20T10:06:59;33.38;28.93;48.06;;
72805;Laerm;60920;48.748;19.142;2023-07-20T10:09:27;31.90;28.70;37.10;;
72805;Laerm;60920;48.748;19.142;2023-07-20T10:11:52;31.14;28.38;38.63;;
72805;Laerm;60920;48.748;19.142;2023-07-20T10:14:19;33.53;28.23;48.46;;
72805;Laerm;60920;48.748;19.142;2023-07-20T10:16:51;31.21;28.66;37.18;;
72805;Laerm;60920;48.748;19.142;2023-07-20T10:19:21;31.85;27.89;42.57;;
72805;Laerm;60920;48.748;19.142;2023-07-20T10:21:51;31.27;28.18;37.08;;
72805;Laerm;60920;48.748;19.142;2023-07-20T10:24:20;31.50;27.68;35.74;;
72805;Laerm;60920;48.748;19.142;2023-07-20T10:26:45;31.54;28.47;38.86;;
72805;Laerm;60920;48.748;19.142;2023-07-20T10:29:11;31.85;28.58;37.83;;
72805;Laerm;60920;48.748;19.142;2023-07-20T10:31:37;32.27;27.86;42.73;;
72805;Laerm;60920;48.748;19.142;2023-07-20T10:34:03;36.06;29.31;58.00;;
72805;Laerm;60920;48.748;19.142;2023-07-20T10:36:29;33.52;29.35;46.25;;
72805;Laerm;60920;48.748;19.142;2023-07-20T10:38:55;33.16;29.39;37.95;;
72805;Laerm;60920;48.748;19.142;2023-07-20T10:41:21;33.32;29.50;42.64;;
72805;Laerm;60920;48.748;19.142;2023-07-20T10:43:49;32.54;28.97;47.64;;
72805;Laerm;60920;48.748;19.142;2023-07-20T10:46:32;32.09;28.81;44.07;;
72805;Laerm;60920;48.748;19.142;2023-07-20T10:48:58;31.53;28.25;41.90;;
72805;Laerm;60920;48.748;19.142;2023-07-20T10:51:24;32.20;28.77;39.76;;
72805;Laerm;60920;48.748;19.142;2023-07-20T10:53:49;35.62;28.76;43.59;;
72805;Laerm;60920;48.748;19.142;2023-07-20T10:56:19;32.58;28.30;41.10;;
72805;Laerm;60920;48.748;19.142;2023-07-20T10:58:45;34.11;29.91;44.80;;
72805;Laerm;60920;48.748;19.142;2023-07-20T11:01:14;35.63;30.16;45.48;;
72805;Laerm;60920;48.748;19.142;2023-07-20T11:03:39;35.33;29.20;50.29;;
72805;Laerm;60920;48.748;19.142;2023-07-20T11:08:56;37.36;28.93;47.67;;
72805;Laerm;60920;48.748;19.142;2023-07-20T11:11:22;33.01;28.78;42.10;;
72805;Laerm;60920;48.748;19.142;2023-07-20T11:13:58;31.42;28.16;39.15;;
72805;Laerm;60920;48.748;19.142;2023-07-20T11:18:58;30.62;27.79;40.26;;
72805;Laerm;60920;48.748;19.142;2023-07-20T11:21:24;31.78;28.38;38.96;;
72805;Laerm;60920;48.748;19.142;2023-07-20T11:23:50;31.67;28.40;43.88;;
72805;Laerm;60920;48.748;19.142;2023-07-20T11:26:17;31.01;27.85;36.21;;
72805;Laerm;60920;48.748;19.142;2023-07-20T11:28:47;32.22;28.10;41.37;;
72805;Laerm;60920;48.748;19.142;2023-07-20T11:31:14;33.52;28.28;44.95;;
72805;Laerm;60920;48.748;19.142;2023-07-20T11:33:41;32.56;29.50;36.83;;
72805;Laerm;60920;48.748;19.142;2023-07-20T11:36:08;31.70;27.59;39.66;;
72805;Laerm;60920;48.748;19.142;2023-07-20T11:38:33;35.91;28.10;51.62;;
72805;Laerm;60920;48.748;19.142;2023-07-20T11:40:58;31.32;27.79;38.40;;
72805;Laerm;60920;48.748;19.142;2023-07-20T11:43:23;32.86;28.87;39.46;;
72805;Laerm;60920;48.748;19.142;2023-07-20T11:45:49;33.20;28.83;44.50;;
72805;Laerm;60920;48.748;19.142;2023-07-20T11:48:17;31.96;28.94;35.42;;
72805;Laerm;60920;48.748;19.142;2023-07-20T11:50:42;32.06;28.74;42.61;;
72805;Laerm;60920;48.748;19.142;2023-07-20T11:53:08;31.91;28.19;40.14;;
72805;Laerm;60920;48.748;19.142;2023-07-20T11:55:33;31.36;28.35;35.88;;
72805;Laerm;60920;48.748;19.142;2023-07-20T11:58:05;32.25;28.63;43.47;;
72805;Laerm;60920;48.748;19.142;2023-07-20T12:00:31;32.47;28.75;42.39;;
72805;Laerm;60920;48.748;19.142;2023-07-20T12:02:57;32.70;29.32;39.62;;
72805;Laerm;60920;48.748;19.142;2023-07-20T12:05:22;32.06;27.50;42.13;;
72805;Laerm;60920;48.748;19.142;2023-07-20T12:07:49;36.87;28.20;57.45;;
72805;Laerm;60920;48.748;19.142;2023-07-20T12:10:15;31.46;28.10;39.33;;
72805;Laerm;60920;48.748;19.142;2023-07-20T12:12:41;32.73;28.19;44.02;;
72805;Laerm;60920;48.748;19.142;2023-07-20T12:17:45;31.15;28.32;39.33;;
72805;Laerm;60920;48.748;19.142;2023-07-20T12:20:11;33.83;28.75;49.79;;
72805;Laerm;60920;48.748;19.142;2023-07-20T12:22:40;38.38;28.91;54.02;;
72805;Laerm;60920;48.748;19.142;2023-07-20T12:25:06;32.04;28.70;37.48;;
72805;Laerm;60920;48.748;19.142;2023-07-20T12:27:32;32.11;28.59;38.98;;
72805;Laerm;60920;48.748;19.142;2023-07-20T12:29:58;32.10;27.70;38.57;;
72805;Laerm;60920;48.748;19.142;2023-07-20T12:32:23;32.16;28.73;38.53;;
72805;Laerm;60920;48.748;19.142;2023-07-20T12:34:49;31.47;28.91;37.00;;
72805;Laerm;60920;48.748;19.142;2023-07-20T12:37:17;32.80;29.56;41.47;;
72805;Laerm;60920;48.748;19.142;2023-07-20T12:39:42;32.18;28.68;37.57;;
72805;Laerm;60920;48.748;19.142;2023-07-20T12:42:09;31.52;28.95;35.52;;
72805;Laerm;60920;48.748;19.142;2023-07-20T12:44:34;32.13;28.88;36.54;;
72805;Laerm;60920;48.748;19.142;2023-07-20T12:47:00;30.84;28.25;37.82;;
72805;Laerm;60920;48.748;19.142;2023-07-20T12:49:25;32.64;28.93;38.48;;
72805;Laerm;60920;48.748;19.142;2023-07-20T12:51:50;32.11;28.22;42.92;;
72805;Laerm;60920;48.748;19.142;2023-07-20T12:54:16;31.70;28.88;38.20;;
72805;Laerm;60920;48.748;19.142;2023-07-20T12:56:41;31.81;28.61;46.56;;
72805;Laerm;60920;48.748;19.142;2023-07-20T12:59:06;32.67;28.99;43.87;;
72805;Laerm;60920;48.748;19.142;2023-07-20T13:01:31;35.26;28.50;55.53;;
72805;Laerm;60920;48.748;19.142;2023-07-20T13:03:57;31.22;27.64;38.98;;
72805;Laerm;60920;48.748;19.142;2023-07-20T13:06:22;31.57;28.72;37.85;;
72805;Laerm;60920;48.748;19.142;2023-07-20T13:08:48;32.45;29.14;37.91;;
72805;Laerm;60920;48.748;19.142;2023-07-20T13:11:15;31.32;27.83;42.53;;
72805;Laerm;60920;48.748;19.142;2023-07-20T13:13:41;35.34;28.98;55.37;;
72805;Laerm;60920;48.748;19.142;2023-07-20T13:16:06;32.67;28.31;54.22;;
72805;Laerm;60920;48.748;19.142;2023-07-20T13:18:31;31.18;28.20;37.38;;
72805;Laerm;60920;48.748;19.142;2023-07-20T13:20:57;31.39;27.90;40.64;;
72805;Laerm;60920;48.748;19.142;2023-07-20T13:23:22;31.96;28.25;48.93;;
72805;Laerm;60920;48.748;19.142;2023-07-20T13:25:47;33.51;28.85;56.13;;
72805;Laerm;60920;48.748;19.142;2023-07-20T13:28:13;32.39;28.23;48.24;;
72805;Laerm;60920;48.748;19.142;2023-07-20T13:30:38;31.99;28.96;43.55;;
72805;Laerm;60920;48.748;19.142;2023-07-20T13:33:03;33.57;28.11;47.78;;
72805;Laerm;60920;48.748;19.142;2023-07-20T13:35:29;32.09;29.47;38.15;;